createdAt,value
2023-03-26T00:00:54.285Z,98308.28
2023-03-26T00:03:24.379Z,98306.09
2023-03-26T00:06:03.324Z,98302.69
2023-03-26T00:08:31.504Z,98314.72
2023-03-26T00:11:01.032Z,98306.16
2023-03-26T00:13:29.258Z,98311.78
2023-03-26T00:15:57.299Z,98318.91
2023-03-26T00:18:30.577Z,98328.00
2023-03-26T00:20:58.813Z,98335.56
2023-03-26T00:23:26.939Z,98327.25
2023-03-26T00:25:56.170Z,98342.41
2023-03-26T00:28:24.874Z,98339.38
2023-03-26T00:30:59.536Z,98341.75
2023-03-26T00:33:29.425Z,98336.19
2023-03-26T00:35:59.116Z,98335.41
2023-03-26T00:38:28.553Z,98326.13
2023-03-26T00:41:05.789Z,98320.34
2023-03-26T00:43:35.456Z,98319.31
2023-03-26T00:46:03.495Z,98314.66
2023-03-26T00:48:44.532Z,98304.22
2023-03-26T00:51:16.309Z,98296.19
2023-03-26T00:53:45.311Z,98296.03
2023-03-26T00:56:14.073Z,98283.09
2023-03-26T00:58:42.378Z,98282.03
2023-03-26T01:01:14.598Z,98276.97
2023-03-26T01:03:57.145Z,98272.97
2023-03-26T01:06:36.665Z,98258.84
2023-03-26T01:09:13.326Z,98260.63
2023-03-26T01:11:41.388Z,98260.69
2023-03-26T01:14:12.297Z,98248.84
2023-03-26T01:16:44.889Z,98249.88
2023-03-26T01:19:20.627Z,98243.97
2023-03-26T01:21:48.516Z,98241.22
2023-03-26T01:24:17.798Z,98236.00
2023-03-26T01:26:59.312Z,98239.94
2023-03-26T01:29:34.293Z,98230.78
2023-03-26T01:32:12.855Z,98230.13
2023-03-26T01:34:52.640Z,98221.47
2023-03-26T01:37:30.445Z,98206.78
2023-03-26T01:40:07.269Z,98210.53
2023-03-26T01:42:41.591Z,98208.53
2023-03-26T01:45:14.500Z,98200.00
2023-03-26T01:47:44.305Z,98200.50
2023-03-26T01:50:12.179Z,98206.56
2023-03-26T01:52:40.418Z,98193.34
2023-03-26T01:55:11.747Z,98187.00
2023-03-26T01:57:51.733Z,98182.31
2023-03-26T02:00:26.429Z,98181.13
2023-03-26T02:03:03.395Z,98173.13
2023-03-26T02:05:35.166Z,98176.38
2023-03-26T02:08:09.630Z,98176.09
2023-03-26T02:10:44.043Z,98151.00
2023-03-26T02:13:12.561Z,98157.44
2023-03-26T02:15:40.561Z,98150.41
2023-03-26T02:18:10.972Z,98131.97
2023-03-26T02:20:38.835Z,98123.53
2023-03-26T02:23:07.151Z,98123.50
2023-03-26T02:25:36.737Z,98122.63
2023-03-26T02:28:06.332Z,98119.44
2023-03-26T02:30:34.562Z,98130.84
2023-03-26T02:33:02.620Z,98130.25
2023-03-26T02:35:40.185Z,98113.56
2023-03-26T02:38:10.522Z,98116.66
2023-03-26T02:40:38.420Z,98118.28
2023-03-26T02:43:07.712Z,98115.19
2023-03-26T02:45:36.687Z,98135.16
2023-03-26T02:48:34.601Z,98128.97
2023-03-26T02:51:11.775Z,98128.19
2023-03-26T02:53:47.443Z,98112.63
2023-03-26T02:56:38.172Z,98115.91
2023-03-26T02:59:30.284Z,98116.66
2023-03-26T03:02:19.374Z,98110.19
2023-03-26T03:04:48.022Z,98108.81
2023-03-26T03:07:15.973Z,98107.59
2023-03-26T03:09:43.776Z,98105.53
2023-03-26T03:12:41.045Z,98097.44
2023-03-26T03:15:11.240Z,98085.72
2023-03-26T03:17:39.105Z,98071.03
2023-03-26T03:20:09.287Z,98075.38
2023-03-26T03:22:39.208Z,98074.44
2023-03-26T03:25:09.128Z,98066.69
2023-03-26T03:27:39.339Z,98057.00
2023-03-26T03:30:15.213Z,98047.66
2023-03-26T03:32:45.919Z,98044.78
2023-03-26T03:35:17.003Z,98043.06
2023-03-26T03:37:49.954Z,98044.94
2023-03-26T03:40:18.030Z,98038.97
2023-03-26T03:42:46.345Z,98037.19
2023-03-26T03:45:18.389Z,98022.88
2023-03-26T03:48:07.569Z,98009.94
2023-03-26T03:50:42.079Z,98012.44
2023-03-26T03:53:22.369Z,97998.69
2023-03-26T03:55:53.942Z,97989.78
2023-03-26T03:58:27.959Z,97993.19
2023-03-26T04:01:03.083Z,97996.78
2023-03-26T04:03:55.272Z,98005.34
2023-03-26T04:06:30.178Z,98014.50
2023-03-26T04:08:58.275Z,98010.63
2023-03-26T04:11:26.239Z,98000.44
2023-03-26T04:14:16.864Z,97997.13
2023-03-26T04:16:58.094Z,97995.41
2023-03-26T04:19:27.437Z,97984.69
2023-03-26T04:21:55.374Z,97967.91
2023-03-26T04:24:24.557Z,97964.41
2023-03-26T04:27:14.954Z,97960.50
2023-03-26T04:29:45.282Z,97956.66
2023-03-26T04:32:26.474Z,97945.56
2023-03-26T04:34:55.581Z,97945.75
2023-03-26T04:37:32.237Z,97945.03
2023-03-26T04:40:23.984Z,97938.69
2023-03-26T04:43:14.152Z,97932.75
2023-03-26T04:46:02.884Z,97925.06
2023-03-26T04:48:34.679Z,97910.50
2023-03-26T04:51:02.526Z,97900.44
2023-03-26T04:53:30.386Z,97875.31
2023-03-26T04:56:34.349Z,97879.56
2023-03-26T04:59:30.405Z,97885.16
2023-03-26T05:02:00.291Z,97888.69
2023-03-26T05:04:34.072Z,97905.88
2023-03-26T05:07:03.012Z,97913.22
2023-03-26T05:09:44.986Z,97921.31
2023-03-26T05:12:17.403Z,97930.16
2023-03-26T05:14:52.867Z,97909.72
2023-03-26T05:17:41.286Z,97910.88
2023-03-26T05:20:21.331Z,97895.47
2023-03-26T05:22:51.218Z,97889.84
2023-03-26T05:25:28.883Z,97882.50
2023-03-26T05:27:57.600Z,97884.50
2023-03-26T05:30:30.804Z,97882.72
2023-03-26T05:33:04.282Z,97871.63
2023-03-26T05:35:43.255Z,97854.91
2023-03-26T05:38:11.060Z,97849.97
2023-03-26T05:40:39.305Z,97846.75
2023-03-26T05:43:08.504Z,97847.06
2023-03-26T05:45:48.783Z,97835.91
2023-03-26T05:48:22.711Z,97829.16
2023-03-26T05:50:55.497Z,97809.16
2023-03-26T05:53:25.227Z,97809.69
2023-03-26T05:56:11.800Z,97801.84
2023-03-26T05:58:58.228Z,97800.13
2023-03-26T06:01:34.610Z,97789.31
2023-03-26T06:04:25.559Z,97801.06
2023-03-26T06:07:13.561Z,97795.84
2023-03-26T06:09:45.375Z,97781.69
2023-03-26T06:12:13.606Z,97771.69
2023-03-26T06:14:43.093Z,97771.56
2023-03-26T06:17:19.332Z,97753.97
2023-03-26T06:20:09.280Z,97755.78
2023-03-26T06:22:44.513Z,97740.13
2023-03-26T06:25:21.491Z,97726.47
2023-03-26T06:28:21.379Z,97732.06
2023-03-26T06:31:09.431Z,97729.63
2023-03-26T06:33:41.350Z,97736.56
2023-03-26T06:36:10.761Z,97725.13
2023-03-26T06:38:40.306Z,97709.91
2023-03-26T06:41:09.536Z,97710.50
2023-03-26T06:44:15.593Z,97713.81
2023-03-26T06:47:01.835Z,97711.94
2023-03-26T06:50:01.612Z,97703.53
2023-03-26T06:52:54.766Z,97694.00
2023-03-26T06:55:44.169Z,97695.59
2023-03-26T06:58:31.237Z,97695.69
2023-03-26T07:01:34.088Z,97711.56
2023-03-26T07:04:20.389Z,97710.66
2023-03-26T07:07:06.764Z,97710.09
2023-03-26T07:09:53.063Z,97707.00
2023-03-26T07:12:51.354Z,97699.38
2023-03-26T07:15:45.582Z,97707.53
2023-03-26T07:18:36.267Z,97697.72
2023-03-26T07:21:06.686Z,97698.91
2023-03-26T07:23:35.013Z,97683.06
2023-03-26T07:26:31.742Z,97674.09
2023-03-26T07:29:34.004Z,97663.38
2023-03-26T07:32:26.241Z,97670.06
2023-03-26T07:35:21.441Z,97653.91
2023-03-26T07:38:23.824Z,97668.28
2023-03-26T07:41:13.509Z,97674.81
2023-03-26T07:44:35.712Z,97669.28
2023-03-26T07:47:28.523Z,97661.75
2023-03-26T07:50:18.770Z,97656.97
2023-03-26T07:53:07.325Z,97657.97
2023-03-26T07:55:58.994Z,97655.94
2023-03-26T07:58:59.416Z,97652.94
2023-03-26T08:02:00.353Z,97653.75
2023-03-26T08:05:00.729Z,97655.09
2023-03-26T08:08:14.438Z,97645.34
2023-03-26T08:11:07.939Z,97640.66
2023-03-26T08:13:59.240Z,97640.41
2023-03-26T08:16:32.879Z,97636.22
2023-03-26T08:19:10.856Z,97626.00
2023-03-26T08:21:42.941Z,97628.59
2023-03-26T08:24:19.991Z,97625.09
2023-03-26T08:26:57.364Z,97618.22
2023-03-26T08:29:41.361Z,97622.81
2023-03-26T08:32:17.518Z,97628.16
2023-03-26T08:34:50.237Z,97630.16
2023-03-26T08:37:18.126Z,97631.59
2023-03-26T08:39:46.508Z,97627.16
2023-03-26T08:42:49.678Z,97622.41
2023-03-26T08:45:43.015Z,97626.59
2023-03-26T08:48:55.648Z,97629.09
2023-03-26T08:52:03.962Z,97622.13
2023-03-26T08:55:08.538Z,97619.16
2023-03-26T08:58:00.416Z,97613.66
2023-03-26T09:00:57.440Z,97604.66
2023-03-26T09:03:48.722Z,97612.31
2023-03-26T09:06:35.381Z,97622.13
2023-03-26T09:10:02.958Z,97621.47
2023-03-26T09:12:55.839Z,97632.56
2023-03-26T09:15:44.267Z,97635.38
2023-03-26T09:18:51.636Z,97626.72
2023-03-26T09:21:47.417Z,97624.59
2023-03-26T09:25:00.203Z,97608.06
2023-03-26T09:27:40.782Z,97593.63
2023-03-26T09:30:29.587Z,97585.31
2023-03-26T09:33:34.885Z,97586.63
2023-03-26T09:36:37.439Z,97590.38
2023-03-26T09:39:11.310Z,97581.34
2023-03-26T09:41:43.691Z,97577.38
2023-03-26T09:44:51.792Z,97587.16
2023-03-26T09:47:44.181Z,97576.22
2023-03-26T09:50:41.300Z,97583.50
2023-03-26T09:53:22.191Z,97584.59
2023-03-26T09:56:04.276Z,97587.34
2023-03-26T09:58:52.939Z,97588.09
2023-03-26T10:01:33.292Z,97573.72
2023-03-26T10:04:26.782Z,97574.06
2023-03-26T10:07:02.748Z,97570.97
2023-03-26T10:09:40.878Z,97551.28
2023-03-26T10:12:20.811Z,97558.94
2023-03-26T10:15:00.701Z,97559.09
2023-03-26T10:17:44.172Z,97558.91
2023-03-26T10:20:33.453Z,97558.72
2023-03-26T10:23:15.847Z,97547.47
2023-03-26T10:25:56.264Z,97541.13
2023-03-26T10:28:42.311Z,97530.88
2023-03-26T10:31:26.640Z,97543.13
2023-03-26T10:34:06.763Z,97537.97
2023-03-26T10:36:36.876Z,97526.47
2023-03-26T10:39:37.368Z,97515.16
2023-03-26T10:42:24.608Z,97514.78
2023-03-26T10:45:11.392Z,97502.56
2023-03-26T10:47:53.710Z,97525.44
2023-03-26T10:50:37.871Z,97515.59
2023-03-26T10:53:11.163Z,97507.72
2023-03-26T10:55:40.972Z,97528.53
2023-03-26T10:58:17.871Z,97504.13
2023-03-26T11:00:51.800Z,97501.03
2023-03-26T11:03:41.551Z,97500.25
2023-03-26T11:06:20.929Z,97495.50
2023-03-26T11:08:54.862Z,97492.28
2023-03-26T11:11:29.887Z,97490.78
2023-03-26T11:14:04.757Z,97488.41
2023-03-26T11:16:45.754Z,97490.28
2023-03-26T11:19:21.695Z,97489.66
2023-03-26T11:21:58.539Z,97490.00
2023-03-26T11:25:05.142Z,97489.56
2023-03-26T11:27:47.467Z,97489.22
2023-03-26T11:30:28.667Z,97487.59
2023-03-26T11:33:00.508Z,97486.38
2023-03-26T11:35:39.511Z,97495.13
2023-03-26T11:38:19.517Z,97490.78
2023-03-26T11:40:51.032Z,97504.47
2023-03-26T11:43:38.908Z,97487.19
2023-03-26T11:46:12.029Z,97495.03
2023-03-26T11:48:44.215Z,97511.66
2023-03-26T11:51:16.740Z,97508.91
2023-03-26T11:53:46.769Z,97498.94
2023-03-26T11:56:28.335Z,97517.84
2023-03-26T11:59:01.927Z,97504.50
2023-03-26T12:01:41.850Z,97478.06
2023-03-26T12:04:14.469Z,97510.88
2023-03-26T12:06:53.272Z,97512.78
2023-03-26T12:09:22.474Z,97590.41
2023-03-26T12:11:55.694Z,97505.34
2023-03-26T12:14:27.321Z,97492.31
2023-03-26T12:17:03.785Z,97491.31
2023-03-26T12:19:40.429Z,97495.63
2023-03-26T12:22:29.893Z,97489.75
2023-03-26T12:25:16.805Z,97489.25
2023-03-26T12:27:46.203Z,97489.28
2023-03-26T12:30:21.791Z,97476.75
2023-03-26T12:32:53.353Z,97474.25
2023-03-26T12:35:27.153Z,97464.31
2023-03-26T12:37:56.305Z,97460.13
2023-03-26T12:40:31.653Z,97449.34
2023-03-26T12:44:56.531Z,97448.66
2023-03-26T12:47:56.414Z,97453.44
2023-03-26T12:48:40.001Z,97424.66
2023-03-26T12:51:23.749Z,97443.16
2023-03-26T12:54:04.652Z,97423.97
2023-03-26T12:56:44.035Z,97431.84
2023-03-26T12:59:35.451Z,97407.34
2023-03-26T13:02:21.726Z,97406.09
2023-03-26T13:05:06.346Z,97396.94
2023-03-26T13:07:52.132Z,97413.66
2023-03-26T13:10:42.234Z,97398.47
2023-03-26T13:13:29.552Z,97407.53
2023-03-26T13:16:02.036Z,97417.50
2023-03-26T13:18:45.059Z,97400.47
2023-03-26T13:21:20.480Z,97413.69
2023-03-26T13:23:57.154Z,97440.41
2023-03-26T13:26:41.060Z,97458.66
2023-03-26T13:29:18.441Z,97437.47
2023-03-26T13:31:54.559Z,97427.81
2023-03-26T13:34:31.201Z,97410.41
2023-03-26T13:37:06.925Z,97412.59
2023-03-26T13:39:46.932Z,97396.25
2023-03-26T13:42:33.575Z,97402.22
2023-03-26T13:45:15.532Z,97389.03
2023-03-26T13:47:48.481Z,97402.13
2023-03-26T13:50:23.318Z,97389.91
2023-03-26T13:52:55.877Z,97387.47
2023-03-26T13:55:29.367Z,97383.72
2023-03-26T13:58:04.898Z,97376.41
2023-03-26T14:00:54.454Z,97377.19
2023-03-26T14:03:30.995Z,97366.69
2023-03-26T14:06:04.906Z,97371.50
2023-03-26T14:08:38.449Z,97373.56
2023-03-26T14:11:11.070Z,97385.91
2023-03-26T14:13:47.299Z,97369.38
2023-03-26T14:16:19.639Z,97374.34
2023-03-26T14:18:53.523Z,97373.50
2023-03-26T14:21:45.008Z,97388.66
2023-03-26T14:24:32.313Z,97366.06
2023-03-26T14:27:17.820Z,97374.34
2023-03-26T14:29:58.878Z,97364.56
2023-03-26T14:32:41.836Z,97371.59
2023-03-26T14:35:26.032Z,97380.06
2023-03-26T14:38:28.564Z,97382.00
2023-03-26T14:41:10.148Z,97379.66
2023-03-26T14:44:00.521Z,97390.78
2023-03-26T14:46:40.001Z,97395.91
2023-03-26T14:49:30.765Z,97400.63
2023-03-26T14:52:03.058Z,97424.66
2023-03-26T14:54:34.442Z,97477.03
2023-03-26T14:57:38.288Z,97526.97
2023-03-26T15:01:05.545Z,97524.97
2023-03-26T15:04:23.096Z,97537.56
2023-03-26T15:07:24.396Z,97539.59
2023-03-26T15:10:22.517Z,97544.88
2023-03-26T15:13:06.247Z,97539.09
2023-03-26T15:16:07.609Z,97538.13
2023-03-26T15:19:21.213Z,97598.69
2023-03-26T15:22:24.542Z,97574.38
2023-03-26T15:25:27.577Z,97573.63
2023-03-26T15:28:19.166Z,97578.53
2023-03-26T15:31:14.097Z,97575.00
2023-03-26T15:34:12.074Z,97559.66
2023-03-26T15:37:01.592Z,97561.16
2023-03-26T15:39:59.245Z,97552.00
2023-03-26T15:42:38.212Z,97539.69
2023-03-26T15:45:27.637Z,97524.56
2023-03-26T15:48:15.797Z,97525.41
2023-03-26T15:50:55.757Z,97515.66
2023-03-26T15:53:35.495Z,97509.16
2023-03-26T15:56:17.697Z,97500.38
2023-03-26T15:58:52.028Z,97502.09
2023-03-26T16:01:33.990Z,97503.94
2023-03-26T16:04:19.041Z,97509.72
2023-03-26T16:06:58.450Z,97522.50
2023-03-26T16:09:42.089Z,97517.50
2023-03-26T16:12:35.785Z,97514.47
2023-03-26T16:15:32.201Z,97522.78
2023-03-26T16:18:33.041Z,97526.44
2023-03-26T16:21:39.557Z,97526.13
2023-03-26T16:24:20.532Z,97536.13
2023-03-26T16:27:08.040Z,97520.25
2023-03-26T16:30:09.391Z,97525.66
2023-03-26T16:32:42.334Z,97521.09
2023-03-26T16:35:56.912Z,97539.09
2023-03-26T16:38:27.290Z,97545.16
2023-03-26T16:41:03.933Z,97549.97
2023-03-26T16:43:44.979Z,97551.81
2023-03-26T16:46:27.244Z,97551.69
2023-03-26T16:49:01.588Z,97559.66
2023-03-26T16:51:47.376Z,97565.06
2023-03-26T16:54:23.238Z,97566.69
2023-03-26T16:56:58.369Z,97565.19
2023-03-26T17:00:05.717Z,97568.66
2023-03-26T17:02:49.716Z,97574.38
2023-03-26T17:05:21.129Z,97571.50
2023-03-26T17:07:59.544Z,97573.84
2023-03-26T17:10:34.732Z,97579.84
2023-03-26T17:13:07.857Z,97571.41
2023-03-26T17:15:45.304Z,97597.06
2023-03-26T17:18:36.683Z,97570.66
2023-03-26T17:21:13.390Z,97578.78
2023-03-26T17:24:04.842Z,97578.25
2023-03-26T17:26:46.483Z,97575.56
2023-03-26T17:29:27.160Z,97581.81
2023-03-26T17:32:01.522Z,97584.53
2023-03-26T17:34:55.814Z,97583.59
2023-03-26T17:37:43.339Z,97576.78
2023-03-26T17:40:51.581Z,97565.59
2023-03-26T17:43:50.215Z,97567.81
2023-03-26T17:46:34.000Z,97562.91
2023-03-26T17:49:08.136Z,97561.69
2023-03-26T17:51:47.467Z,97566.66
2023-03-26T17:54:21.672Z,97570.09
2023-03-26T17:56:51.249Z,97551.94
2023-03-26T17:59:23.471Z,97552.09
2023-03-26T18:01:55.792Z,97552.53
2023-03-26T18:04:30.779Z,97547.97
2023-03-26T18:07:18.058Z,97547.09
2023-03-26T18:10:06.592Z,97548.63
2023-03-26T18:12:57.016Z,97548.94
2023-03-26T18:15:46.788Z,97543.88
2023-03-26T18:18:19.813Z,97545.03
2023-03-26T18:20:49.337Z,97550.94
2023-03-26T18:23:26.303Z,97560.69
2023-03-26T18:25:58.680Z,97551.81
2023-03-26T18:28:32.508Z,97559.47
2023-03-26T18:31:09.966Z,97566.59
2023-03-26T18:33:49.038Z,97567.25
2023-03-26T18:36:18.537Z,97557.88
2023-03-26T18:38:48.863Z,97566.81
2023-03-26T18:41:24.686Z,97548.97
2023-03-26T18:43:52.448Z,97555.22
2023-03-26T18:46:20.810Z,97551.50
2023-03-26T18:48:48.642Z,97560.44
2023-03-26T18:51:22.833Z,97556.31
2023-03-26T18:53:54.698Z,97553.94
2023-03-26T18:56:31.330Z,97561.84
2023-03-26T18:59:05.585Z,97563.41
2023-03-26T19:01:36.558Z,97539.97
2023-03-26T19:04:07.965Z,97550.84
2023-03-26T19:06:41.038Z,97558.97
2023-03-26T19:09:28.172Z,97554.06
2023-03-26T19:12:05.297Z,97547.00
2023-03-26T19:14:36.619Z,97551.66
2023-03-26T19:17:07.363Z,97569.00
2023-03-26T19:19:38.186Z,97546.59
2023-03-26T19:22:06.991Z,97550.38
2023-03-26T19:24:39.315Z,97550.94
2023-03-26T19:27:07.354Z,97544.34
2023-03-26T19:29:36.880Z,97553.47
2023-03-26T19:32:06.777Z,97549.03
2023-03-26T19:34:39.327Z,97553.56
2023-03-26T19:37:19.397Z,97546.16
2023-03-26T19:39:51.116Z,97545.44
2023-03-26T19:42:23.313Z,97541.06
2023-03-26T19:44:52.090Z,97548.69
2023-03-26T19:47:26.783Z,97556.38
2023-03-26T19:50:01.834Z,97554.84
2023-03-26T19:52:34.763Z,97541.41
2023-03-26T19:55:16.593Z,97546.25
2023-03-26T19:57:45.149Z,97544.91
2023-03-26T20:00:14.693Z,97547.81
2023-03-26T20:02:45.850Z,97538.38
2023-03-26T20:05:19.145Z,97539.16
2023-03-26T20:07:47.446Z,97541.03
2023-03-26T20:10:17.219Z,97538.38
2023-03-26T20:12:45.471Z,97539.16
2023-03-26T20:15:19.620Z,97540.53
2023-03-26T20:17:50.075Z,97538.38
2023-03-26T20:20:18.326Z,97545.78
2023-03-26T20:22:47.152Z,97533.41
2023-03-26T20:25:20.456Z,97538.88
2023-03-26T20:27:48.835Z,97539.91
2023-03-26T20:30:22.289Z,97538.16
2023-03-26T20:33:11.879Z,97542.63
2023-03-26T20:35:40.912Z,97546.66
2023-03-26T20:38:09.641Z,97546.38
2023-03-26T20:40:39.078Z,97538.75
2023-03-26T20:43:10.781Z,97542.63
2023-03-26T20:45:38.717Z,97545.28
2023-03-26T20:48:07.085Z,97540.47
2023-03-26T20:50:35.966Z,97539.97
2023-03-26T20:53:06.404Z,97537.75
2023-03-26T20:55:35.554Z,97541.41
2023-03-26T20:58:04.686Z,97533.69
2023-03-26T21:00:32.469Z,97546.16
2023-03-26T21:03:00.222Z,97545.00
2023-03-26T21:05:30.068Z,97551.00
2023-03-26T21:07:59.599Z,97550.97
2023-03-26T21:10:29.671Z,97565.31
2023-03-26T21:13:00.696Z,97557.69
2023-03-26T21:15:30.515Z,97557.41
2023-03-26T21:17:59.018Z,97565.06
2023-03-26T21:20:28.880Z,97561.25
2023-03-26T21:23:04.032Z,97574.34
2023-03-26T21:25:40.169Z,97574.94
2023-03-26T21:28:24.054Z,97576.84
2023-03-26T21:30:56.899Z,97582.66
2023-03-26T21:33:25.327Z,97596.25
2023-03-26T21:35:53.716Z,97594.28
2023-03-26T21:38:22.460Z,97603.75
2023-03-26T21:40:58.329Z,97599.34
2023-03-26T21:43:26.959Z,97594.97
2023-03-26T21:45:57.387Z,97606.25
2023-03-26T21:48:25.889Z,97601.75
2023-03-26T21:50:54.362Z,97598.19
2023-03-26T21:53:24.178Z,97609.63
2023-03-26T21:56:01.615Z,97610.69
2023-03-26T21:58:47.072Z,97613.72
2023-03-26T22:01:26.701Z,97603.78
2023-03-26T22:04:03.363Z,97602.03
2023-03-26T22:06:37.196Z,97612.59
2023-03-26T22:09:05.767Z,97612.50
2023-03-26T22:11:33.559Z,97613.09
2023-03-26T22:14:01.567Z,97614.59
2023-03-26T22:16:30.758Z,97607.97
2023-03-26T22:18:58.540Z,97619.81
2023-03-26T22:21:26.414Z,97625.69
2023-03-26T22:23:54.269Z,97623.94
2023-03-26T22:26:24.134Z,97628.34
2023-03-26T22:28:53.127Z,97633.28
2023-03-26T22:31:21.160Z,97629.22
2023-03-26T22:33:50.239Z,97637.41
2023-03-26T22:36:22.762Z,97646.75
2023-03-26T22:38:54.117Z,97650.22
2023-03-26T22:41:22.436Z,97648.00
2023-03-26T22:43:52.020Z,97656.28
2023-03-26T22:46:20.315Z,97655.50
2023-03-26T22:48:49.317Z,97644.97
2023-03-26T22:51:19.183Z,97651.31
2023-03-26T22:53:46.984Z,97649.94
2023-03-26T22:56:15.456Z,97658.72
2023-03-26T22:58:43.162Z,97673.34
2023-03-26T23:01:17.757Z,97663.06
2023-03-26T23:03:45.706Z,97683.22
2023-03-26T23:06:14.234Z,97669.78
2023-03-26T23:08:43.594Z,97674.91
2023-03-26T23:11:12.613Z,97670.16
2023-03-26T23:13:40.876Z,97677.09
2023-03-26T23:16:10.064Z,97678.63
2023-03-26T23:18:38.800Z,97682.34
2023-03-26T23:21:11.793Z,97686.75
2023-03-26T23:23:41.284Z,97687.97
2023-03-26T23:26:10.706Z,97696.69
2023-03-26T23:28:39.151Z,97707.03
2023-03-26T23:31:10.026Z,97716.44
2023-03-26T23:33:45.519Z,97713.81
2023-03-26T23:36:14.952Z,97718.97
2023-03-26T23:38:44.091Z,97720.38
2023-03-26T23:41:14.960Z,97725.53
2023-03-26T23:43:54.683Z,97726.16
2023-03-26T23:46:25.146Z,97725.63
2023-03-26T23:48:53.382Z,97738.00
2023-03-26T23:51:22.528Z,97748.50
2023-03-26T23:53:50.503Z,97746.28
2023-03-26T23:56:20.138Z,97740.22
2023-03-26T23:58:48.842Z,97738.63
